sensor_id;sensor_type;location;lat;lon;timestamp;pressure;altitude;pressure_sealevel;temperature;humidity
67015;BME280;1033;52.560;13.374;2023-03-01T00:00:10;102624.50;;;-2.26;86.96
67015;BME280;1033;52.560;13.374;2023-03-01T00:02:46;102626.22;;;-2.25;87.54
67015;BME280;1033;52.560;13.374;2023-03-01T00:05:20;102624.81;;;-2.32;88.16
67015;BME280;1033;52.560;13.374;2023-03-01T00:08:03;102622.03;;;-2.29;88.03
67015;BME280;1033;52.560;13.374;2023-03-01T00:11:03;102612.66;;;-2.36;88.05
67015;BME280;1033;52.560;13.374;2023-03-01T00:13:35;102609.53;;;-2.44;88.91
67015;BME280;1033;52.560;13.374;2023-03-01T00:16:16;102606.81;;;-2.42;89.22
67015;BME280;1033;52.560;13.374;2023-03-01T00:18:53;102608.03;;;-2.32;89.86
67015;BME280;1033;52.560;13.374;2023-03-01T00:21:31;102597.59;;;-2.01;89.96
67015;BME280;1033;52.560;13.374;2023-03-01T00:24:06;102603.00;;;-2.20;88.77
67015;BME280;1033;52.560;13.374;2023-03-01T00:26:38;102594.72;;;-2.31;89.22
67015;BME280;1033;52.560;13.374;2023-03-01T00:29:11;102594.38;;;-2.42;89.45
67015;BME280;1033;52.560;13.374;2023-03-01T00:31:49;102595.47;;;-2.46;90.01
67015;BME280;1033;52.560;13.374;2023-03-01T00:34:25;102598.38;;;-2.50;90.98
67015;BME280;1033;52.560;13.374;2023-03-01T00:37:10;102594.41;;;-2.25;92.25
67015;BME280;1033;52.560;13.374;2023-03-01T00:39:50;102599.25;;;-2.15;91.35
67015;BME280;1033;52.560;13.374;2023-03-01T00:42:31;102598.06;;;-2.10;90.63
67015;BME280;1033;52.560;13.374;2023-03-01T00:48:48;102594.38;;;-2.07;89.86
67015;BME280;1033;52.560;13.374;2023-03-01T00:51:23;102601.78;;;-1.97;89.50
67015;BME280;1033;52.560;13.374;2023-03-01T00:53:59;102606.28;;;-1.82;89.12
67015;BME280;1033;52.560;13.374;2023-03-01T00:56:40;102593.88;;;-1.81;88.42
67015;BME280;1033;52.560;13.374;2023-03-01T00:59:13;102595.47;;;-1.94;88.19
67015;BME280;1033;52.560;13.374;2023-03-01T01:01:44;102585.13;;;-1.83;88.69
67015;BME280;1033;52.560;13.374;2023-03-01T01:04:21;102585.31;;;-1.86;89.34
67015;BME280;1033;52.560;13.374;2023-03-01T01:06:58;102575.50;;;-2.01;88.66
67015;BME280;1033;52.560;13.374;2023-03-01T01:09:32;102584.25;;;-1.99;89.69
67015;BME280;1033;52.560;13.374;2023-03-01T01:12:18;102576.16;;;-2.13;90.03
67015;BME280;1033;52.560;13.374;2023-03-01T01:14:51;102574.28;;;-2.29;89.89
67015;BME280;1033;52.560;13.374;2023-03-01T01:17:25;102574.13;;;-2.26;89.86
67015;BME280;1033;52.560;13.374;2023-03-01T01:19:58;102571.13;;;-2.02;88.96
67015;BME280;1033;52.560;13.374;2023-03-01T01:22:34;102575.66;;;-2.04;88.06
67015;BME280;1033;52.560;13.374;2023-03-01T01:25:14;102557.72;;;-2.16;87.60
67015;BME280;1033;52.560;13.374;2023-03-01T01:27:44;102556.09;;;-2.19;87.97
67015;BME280;1033;52.560;13.374;2023-03-01T01:30:17;102552.75;;;-2.40;88.37
67015;BME280;1033;52.560;13.374;2023-03-01T01:32:52;102548.69;;;-2.47;89.02
67015;BME280;1033;52.560;13.374;2023-03-01T01:35:27;102542.00;;;-2.54;89.13
67015;BME280;1033;52.560;13.374;2023-03-01T01:38:04;102537.31;;;-2.49;89.21
67015;BME280;1033;52.560;13.374;2023-03-01T01:40:45;102538.88;;;-2.28;88.52
67015;BME280;1033;52.560;13.374;2023-03-01T01:43:20;102537.44;;;-2.17;86.78
67015;BME280;1033;52.560;13.374;2023-03-01T01:46:06;102532.13;;;-2.17;86.42
67015;BME280;1033;52.560;13.374;2023-03-01T01:48:55;102534.50;;;-2.29;86.25
67015;BME280;1033;52.560;13.374;2023-03-01T01:51:40;102533.56;;;-2.45;86.08
67015;BME280;1033;52.560;13.374;2023-03-01T01:54:30;102535.63;;;-2.33;86.41
67015;BME280;1033;52.560;13.374;2023-03-01T01:57:06;102531.06;;;-2.31;85.41
67015;BME280;1033;52.560;13.374;2023-03-01T01:59:40;102539.63;;;-2.26;84.98
67015;BME280;1033;52.560;13.374;2023-03-01T02:02:16;102533.19;;;-2.37;84.62
67015;BME280;1033;52.560;13.374;2023-03-01T02:05:01;102533.75;;;-2.48;84.57
67015;BME280;1033;52.560;13.374;2023-03-01T02:07:40;102538.97;;;-2.64;85.39
67015;BME280;1033;52.560;13.374;2023-03-01T02:10:18;102548.53;;;-2.78;86.14
67015;BME280;1033;52.560;13.374;2023-03-01T02:12:51;102543.22;;;-2.61;85.98
67015;BME280;1033;52.560;13.374;2023-03-01T02:15:28;102537.63;;;-2.55;85.15
67015;BME280;1033;52.560;13.374;2023-03-01T02:18:07;102543.97;;;-2.57;84.87
67015;BME280;1033;52.560;13.374;2023-03-01T02:21:09;102548.00;;;-2.33;85.38
67015;BME280;1033;52.560;13.374;2023-03-01T02:24:07;102549.00;;;-2.18;84.50
67015;BME280;1033;52.560;13.374;2023-03-01T02:26:53;102546.75;;;-2.43;85.67
67015;BME280;1033;52.560;13.374;2023-03-01T02:29:36;102552.28;;;-2.65;87.58
67015;BME280;1033;52.560;13.374;2023-03-01T02:32:07;102554.75;;;-2.79;87.87
67015;BME280;1033;52.560;13.374;2023-03-01T02:34:43;102551.19;;;-2.78;88.46
67015;BME280;1033;52.560;13.374;2023-03-01T02:37:20;102558.13;;;-2.58;88.41
67015;BME280;1033;52.560;13.374;2023-03-01T02:40:02;102557.91;;;-2.71;88.61
67015;BME280;1033;52.560;13.374;2023-03-01T02:42:47;102550.25;;;-2.77;88.93
67015;BME280;1033;52.560;13.374;2023-03-01T02:45:27;102550.72;;;-2.69;89.22
67015;BME280;1033;52.560;13.374;2023-03-01T02:48:06;102544.16;;;-2.79;90.06
67015;BME280;1033;52.560;13.374;2023-03-01T02:50:53;102543.38;;;-2.47;89.70
67015;BME280;1033;52.560;13.374;2023-03-01T02:53:39;102541.44;;;-2.26;88.40
67015;BME280;1033;52.560;13.374;2023-03-01T02:56:18;102531.00;;;-2.46;89.01
67015;BME280;1033;52.560;13.374;2023-03-01T02:58:54;102531.38;;;-2.37;88.90
67015;BME280;1033;52.560;13.374;2023-03-01T03:01:35;102529.34;;;-2.32;88.99
67015;BME280;1033;52.560;13.374;2023-03-01T03:04:15;102519.09;;;-2.38;88.73
67015;BME280;1033;52.560;13.374;2023-03-01T03:06:52;102523.75;;;-2.60;88.80
67015;BME280;1033;52.560;13.374;2023-03-01T03:09:28;102528.13;;;-2.76;88.83
67015;BME280;1033;52.560;13.374;2023-03-01T03:12:05;102527.63;;;-2.84;90.23
67015;BME280;1033;52.560;13.374;2023-03-01T03:14:51;102522.66;;;-2.73;90.36
67015;BME280;1033;52.560;13.374;2023-03-01T03:17:25;102526.41;;;-2.60;90.69
67015;BME280;1033;52.560;13.374;2023-03-01T03:20:09;102529.81;;;-2.41;91.33
67015;BME280;1033;52.560;13.374;2023-03-01T03:22:42;102521.09;;;-2.60;90.94
67015;BME280;1033;52.560;13.374;2023-03-01T03:25:16;102523.75;;;-2.43;90.70
67015;BME280;1033;52.560;13.374;2023-03-01T03:27:52;102521.72;;;-2.55;90.26
67015;BME280;1033;52.560;13.374;2023-03-01T03:30:29;102513.16;;;-2.60;90.58
67015;BME280;1033;52.560;13.374;2023-03-01T03:33:06;102518.16;;;-2.71;90.82
67015;BME280;1033;52.560;13.374;2023-03-01T03:35:43;102509.88;;;-2.48;91.64
67015;BME280;1033;52.560;13.374;2023-03-01T03:38:18;102502.41;;;-2.74;91.39
67015;BME280;1033;52.560;13.374;2023-03-01T03:41:00;102503.78;;;-2.84;91.59
67015;BME280;1033;52.560;13.374;2023-03-01T03:43:36;102496.47;;;-2.79;92.71
67015;BME280;1033;52.560;13.374;2023-03-01T03:46:12;102494.22;;;-2.70;92.16
67015;BME280;1033;52.560;13.374;2023-03-01T03:48:49;102495.13;;;-2.71;91.75
67015;BME280;1033;52.560;13.374;2023-03-01T03:51:21;102493.84;;;-2.62;91.43
67015;BME280;1033;52.560;13.374;2023-03-01T03:53:57;102489.16;;;-2.74;92.06
67015;BME280;1033;52.560;13.374;2023-03-01T03:56:33;102481.59;;;-2.82;91.52
67015;BME280;1033;52.560;13.374;2023-03-01T03:59:20;102480.44;;;-2.76;92.47
67015;BME280;1033;52.560;13.374;2023-03-01T04:01:52;102481.88;;;-2.71;91.90
67015;BME280;1033;52.560;13.374;2023-03-01T04:04:31;102485.56;;;-2.73;92.52
67015;BME280;1033;52.560;13.374;2023-03-01T04:07:17;102479.19;;;-2.86;92.51
67015;BME280;1033;52.560;13.374;2023-03-01T04:09:50;102486.03;;;-2.82;93.49
67015;BME280;1033;52.560;13.374;2023-03-01T04:12:25;102486.63;;;-2.94;93.70
67015;BME280;1033;52.560;13.374;2023-03-01T04:14:57;102494.28;;;-3.05;94.27
67015;BME280;1033;52.560;13.374;2023-03-01T04:17:30;102483.22;;;-2.96;93.71
67015;BME280;1033;52.560;13.374;2023-03-01T04:20:15;102484.97;;;-3.14;93.68
67015;BME280;1033;52.560;13.374;2023-03-01T04:22:59;102486.63;;;-3.12;93.80
67015;BME280;1033;52.560;13.374;2023-03-01T04:25:41;102481.50;;;-2.80;93.45
67015;BME280;1033;52.560;13.374;2023-03-01T04:28:19;102483.22;;;-2.62;93.16
67015;BME280;1033;52.560;13.374;2023-03-01T04:30:58;102481.81;;;-2.69;92.46
67015;BME280;1033;52.560;13.374;2023-03-01T04:33:44;102481.81;;;-2.69;92.83
67015;BME280;1033;52.560;13.374;2023-03-01T04:36:29;102486.50;;;-2.74;93.09
67015;BME280;1033;52.560;13.374;2023-03-01T04:39:14;102478.31;;;-2.87;93.51
67015;BME280;1033;52.560;13.374;2023-03-01T04:41:47;102476.94;;;-2.77;93.42
67015;BME280;1033;52.560;13.374;2023-03-01T04:44:26;102480.19;;;-3.06;93.61
67015;BME280;1033;52.560;13.374;2023-03-01T04:47:11;102484.44;;;-3.21;93.78
67015;BME280;1033;52.560;13.374;2023-03-01T04:49:50;102482.72;;;-3.22;95.10
67015;BME280;1033;52.560;13.374;2023-03-01T04:52:39;102482.59;;;-3.01;95.39
67015;BME280;1033;52.560;13.374;2023-03-01T04:55:17;102484.31;;;-2.83;94.46
67015;BME280;1033;52.560;13.374;2023-03-01T04:57:54;102485.88;;;-2.79;94.15
67015;BME280;1033;52.560;13.374;2023-03-01T05:00:27;102483.84;;;-2.74;93.02
67015;BME280;1033;52.560;13.374;2023-03-01T05:03:08;102484.09;;;-2.96;92.54
67015;BME280;1033;52.560;13.374;2023-03-01T05:05:48;102481.09;;;-3.07;92.80
67015;BME280;1033;52.560;13.374;2023-03-01T05:08:27;102481.69;;;-3.00;92.86
67015;BME280;1033;52.560;13.374;2023-03-01T05:11:08;102477.28;;;-2.84;91.85
67015;BME280;1033;52.560;13.374;2023-03-01T05:13:45;102477.13;;;-2.98;91.62
67015;BME280;1033;52.560;13.374;2023-03-01T05:16:25;102470.97;;;-3.16;92.03
67015;BME280;1033;52.560;13.374;2023-03-01T05:18:57;102468.44;;;-3.00;92.61
67015;BME280;1033;52.560;13.374;2023-03-01T05:21:38;102471.59;;;-2.94;93.00
67015;BME280;1033;52.560;13.374;2023-03-01T05:24:36;102472.47;;;-3.11;93.70
67015;BME280;1033;52.560;13.374;2023-03-01T05:27:08;102467.34;;;-2.96;94.21
67015;BME280;1033;52.560;13.374;2023-03-01T05:29:50;102472.00;;;-2.84;93.09
67015;BME280;1033;52.560;13.374;2023-03-01T05:32:21;102466.72;;;-3.01;93.31
67015;BME280;1033;52.560;13.374;2023-03-01T05:34:57;102468.34;;;-2.99;93.39
67015;BME280;1033;52.560;13.374;2023-03-01T05:37:30;102465.91;;;-3.03;93.76
67015;BME280;1033;52.560;13.374;2023-03-01T05:40:16;102463.03;;;-2.99;94.37
67015;BME280;1033;52.560;13.374;2023-03-01T05:42:54;102464.81;;;-2.99;94.07
67015;BME280;1033;52.560;13.374;2023-03-01T05:45:28;102459.84;;;-2.88;94.27
67015;BME280;1033;52.560;13.374;2023-03-01T05:48:02;102453.31;;;-2.81;93.91
67015;BME280;1033;52.560;13.374;2023-03-01T05:50:41;102450.81;;;-2.84;93.63
67015;BME280;1033;52.560;13.374;2023-03-01T05:53:18;102459.47;;;-2.98;93.92
67015;BME280;1033;52.560;13.374;2023-03-01T05:55:54;102467.16;;;-3.11;94.13
67015;BME280;1033;52.560;13.374;2023-03-01T05:58:31;102463.97;;;-3.17;94.89
67015;BME280;1033;52.560;13.374;2023-03-01T06:01:03;102459.34;;;-3.31;95.03
67015;BME280;1033;52.560;13.374;2023-03-01T06:03:36;102467.38;;;-2.81;94.55
67015;BME280;1033;52.560;13.374;2023-03-01T06:06:11;102467.81;;;-2.71;94.02
67015;BME280;1033;52.560;13.374;2023-03-01T06:08:42;102463.91;;;-2.81;93.32
67015;BME280;1033;52.560;13.374;2023-03-01T06:11:22;102467.34;;;-2.96;93.82
67015;BME280;1033;52.560;13.374;2023-03-01T06:13:55;102468.19;;;-2.79;94.11
67015;BME280;1033;52.560;13.374;2023-03-01T06:16:28;102466.47;;;-2.63;93.85
67015;BME280;1033;52.560;13.374;2023-03-01T06:19:04;102466.69;;;-2.50;93.18
67015;BME280;1033;52.560;13.374;2023-03-01T06:21:38;102469.34;;;-2.50;92.70
67015;BME280;1033;52.560;13.374;2023-03-01T06:24:14;102469.03;;;-2.44;92.46
67015;BME280;1033;52.560;13.374;2023-03-01T06:26:55;102469.16;;;-2.47;92.67
67015;BME280;1033;52.560;13.374;2023-03-01T06:29:27;102467.97;;;-2.24;91.97
67015;BME280;1033;52.560;13.374;2023-03-01T06:32:11;102465.94;;;-2.36;91.82
67015;BME280;1033;52.560;13.374;2023-03-01T06:34:52;102470.41;;;-2.37;92.02
67015;BME280;1033;52.560;13.374;2023-03-01T06:37:43;102477.34;;;-2.34;92.43
67015;BME280;1033;52.560;13.374;2023-03-01T06:40:18;102476.00;;;-2.26;92.37
67015;BME280;1033;52.560;13.374;2023-03-01T06:42:54;102480.63;;;-2.29;92.40
67015;BME280;1033;52.560;13.374;2023-03-01T06:45:28;102486.28;;;-2.20;92.48
67015;BME280;1033;52.560;13.374;2023-03-01T06:48:04;102483.94;;;-2.08;92.61
67015;BME280;1033;52.560;13.374;2023-03-01T06:50:42;102482.78;;;-1.71;91.16
67015;BME280;1033;52.560;13.374;2023-03-01T06:54:09;102481.59;;;-1.66;90.73
67015;BME280;1033;52.560;13.374;2023-03-01T06:56:43;102477.63;;;-1.59;90.25
67015;BME280;1033;52.560;13.374;2023-03-01T06:59:31;102481.81;;;-1.55;89.52
67015;BME280;1033;52.560;13.374;2023-03-01T07:02:08;102481.22;;;-1.44;88.98
67015;BME280;1033;52.560;13.374;2023-03-01T07:04:43;102481.16;;;-1.43;88.61
67015;BME280;1033;52.560;13.374;2023-03-01T07:07:19;102476.41;;;-1.22;88.80
67015;BME280;1033;52.560;13.374;2023-03-01T07:09:56;102485.94;;;-1.18;88.31
67015;BME280;1033;52.560;13.374;2023-03-01T07:12:30;102487.38;;;-1.12;87.67
67015;BME280;1033;52.560;13.374;2023-03-01T07:15:09;102485.75;;;-0.85;87.13
67015;BME280;1033;52.560;13.374;2023-03-01T07:17:44;102482.59;;;-0.62;85.08
67015;BME280;1033;52.560;13.374;2023-03-01T07:20:21;102485.38;;;-0.49;84.25
67015;BME280;1033;52.560;13.374;2023-03-01T07:23:00;102489.88;;;-0.35;83.66
67015;BME280;1033;52.560;13.374;2023-03-01T07:25:31;102485.69;;;-0.39;83.66
67015;BME280;1033;52.560;13.374;2023-03-01T07:28:05;102492.19;;;-0.01;81.79
67015;BME280;1033;52.560;13.374;2023-03-01T07:30:40;102487.03;;;-0.04;81.50
67015;BME280;1033;52.560;13.374;2023-03-01T07:33:12;102491.78;;;0.05;80.94
67015;BME280;1033;52.560;13.374;2023-03-01T07:35:47;102489.56;;;0.26;80.20
67015;BME280;1033;52.560;13.374;2023-03-01T07:38:20;102494.50;;;0.46;79.83
67015;BME280;1033;52.560;13.374;2023-03-01T07:40:52;102481.44;;;0.56;78.92
67015;BME280;1033;52.560;13.374;2023-03-01T07:43:26;102474.97;;;0.60;78.68
67015;BME280;1033;52.560;13.374;2023-03-01T07:46:01;102484.41;;;0.78;77.27
67015;BME280;1033;52.560;13.374;2023-03-01T07:48:37;102487.03;;;0.92;75.92
67015;BME280;1033;52.560;13.374;2023-03-01T07:51:11;102487.16;;;1.03;74.97
67015;BME280;1033;52.560;13.374;2023-03-01T07:53:46;102485.75;;;1.24;73.77
67015;BME280;1033;52.560;13.374;2023-03-01T07:56:20;102485.03;;;1.35;73.45
67015;BME280;1033;52.560;13.374;2023-03-01T07:58:53;102489.50;;;1.35;72.24
67015;BME280;1033;52.560;13.374;2023-03-01T08:01:27;102482.59;;;1.45;73.59
67015;BME280;1033;52.560;13.374;2023-03-01T08:04:00;102489.97;;;1.66;70.85
67015;BME280;1033;52.560;13.374;2023-03-01T08:06:37;102482.94;;;1.78;70.34
67015;BME280;1033;52.560;13.374;2023-03-01T08:09:12;102488.34;;;1.89;70.34
67015;BME280;1033;52.560;13.374;2023-03-01T08:11:43;102483.22;;;1.99;69.87
67015;BME280;1033;52.560;13.374;2023-03-01T08:14:15;102487.47;;;2.14;70.00
67015;BME280;1033;52.560;13.374;2023-03-01T08:16:52;102475.19;;;2.24;69.24
67015;BME280;1033;52.560;13.374;2023-03-01T08:19:24;102472.50;;;2.37;68.07
67015;BME280;1033;52.560;13.374;2023-03-01T08:22:00;102472.72;;;2.70;64.91
67015;BME280;1033;52.560;13.374;2023-03-01T08:24:34;102473.75;;;2.80;63.59
67015;BME280;1033;52.560;13.374;2023-03-01T08:27:11;102467.47;;;2.92;62.99
67015;BME280;1033;52.560;13.374;2023-03-01T08:29:56;102463.53;;;3.09;62.19
67015;BME280;1033;52.560;13.374;2023-03-01T08:32:32;102460.50;;;3.14;62.50
67015;BME280;1033;52.560;13.374;2023-03-01T08:35:06;102456.88;;;3.15;62.12
67015;BME280;1033;52.560;13.374;2023-03-01T08:37:38;102449.38;;;3.31;61.86
67015;BME280;1033;52.560;13.374;2023-03-01T08:40:12;102453.78;;;3.54;60.60
67015;BME280;1033;52.560;13.374;2023-03-01T08:42:48;102456.75;;;3.84;60.30
67015;BME280;1033;52.560;13.374;2023-03-01T08:45:23;102453.97;;;3.86;59.56
67015;BME280;1033;52.560;13.374;2023-03-01T08:47:55;102463.34;;;3.91;59.40
67015;BME280;1033;52.560;13.374;2023-03-01T08:50:32;102460.66;;;4.03;59.09
67015;BME280;1033;52.560;13.374;2023-03-01T08:53:16;102461.91;;;4.10;58.01
67015;BME280;1033;52.560;13.374;2023-03-01T08:55:47;102458.97;;;4.02;58.54
67015;BME280;1033;52.560;13.374;2023-03-01T08:58:19;102460.03;;;4.21;58.39
67015;BME280;1033;52.560;13.374;2023-03-01T09:00:51;102446.41;;;4.35;57.62
67015;BME280;1033;52.560;13.374;2023-03-01T09:03:28;102446.00;;;4.51;56.76
67015;BME280;1033;52.560;13.374;2023-03-01T09:06:03;102440.03;;;4.36;57.38
67015;BME280;1033;52.560;13.374;2023-03-01T09:08:36;102441.34;;;4.64;56.91
67015;BME280;1033;52.560;13.374;2023-03-01T09:11:11;102441.00;;;4.58;56.00
67015;BME280;1033;52.560;13.374;2023-03-01T09:13:44;102444.66;;;4.57;56.04
67015;BME280;1033;52.560;13.374;2023-03-01T09:16:19;102437.66;;;4.65;56.36
67015;BME280;1033;52.560;13.374;2023-03-01T09:18:53;102442.66;;;4.70;55.44
67015;BME280;1033;52.560;13.374;2023-03-01T09:21:24;102435.94;;;4.75;55.42
67015;BME280;1033;52.560;13.374;2023-03-01T09:24:08;102444.22;;;4.84;55.77
67015;BME280;1033;52.560;13.374;2023-03-01T09:26:44;102438.78;;;4.95;54.91
67015;BME280;1033;52.560;13.374;2023-03-01T09:29:18;102441.00;;;5.21;54.12
67015;BME280;1033;52.560;13.374;2023-03-01T09:31:50;102438.16;;;5.23;53.35
67015;BME280;1033;52.560;13.374;2023-03-01T09:34:27;102431.50;;;5.38;53.23
67015;BME280;1033;52.560;13.374;2023-03-01T09:36:59;102436.34;;;5.44;52.07
67015;BME280;1033;52.560;13.374;2023-03-01T09:39:31;102436.84;;;5.38;51.50
67015;BME280;1033;52.560;13.374;2023-03-01T09:42:04;102439.81;;;5.35;51.62
67015;BME280;1033;52.560;13.374;2023-03-01T09:44:40;102441.72;;;5.44;51.11
67015;BME280;1033;52.560;13.374;2023-03-01T09:47:19;102427.44;;;5.44;50.81
67015;BME280;1033;52.560;13.374;2023-03-01T09:50:01;102431.53;;;5.68;50.55
67015;BME280;1033;52.560;13.374;2023-03-01T09:52:39;102427.06;;;5.99;49.71
67015;BME280;1033;52.560;13.374;2023-03-01T09:55:15;102429.38;;;6.14;49.34
67015;BME280;1033;52.560;13.374;2023-03-01T09:57:52;102436.06;;;6.19;48.40
67015;BME280;1033;52.560;13.374;2023-03-01T10:00:37;102424.22;;;6.01;48.85
67015;BME280;1033;52.560;13.374;2023-03-01T10:03:17;102431.94;;;6.25;48.30
67015;BME280;1033;52.560;13.374;2023-03-01T10:06:04;102435.03;;;6.20;47.90
67015;BME280;1033;52.560;13.374;2023-03-01T10:09:07;102434.75;;;6.14;47.23
67015;BME280;1033;52.560;13.374;2023-03-01T10:11:54;102436.06;;;5.89;47.16
67015;BME280;1033;52.560;13.374;2023-03-01T10:14:53;102436.22;;;5.97;47.78
67015;BME280;1033;52.560;13.374;2023-03-01T10:17:37;102442.22;;;6.10;47.79
67015;BME280;1033;52.560;13.374;2023-03-01T10:20:22;102435.03;;;6.20;47.33
67015;BME280;1033;52.560;13.374;2023-03-01T10:23:13;102432.22;;;6.22;46.85
67015;BME280;1033;52.560;13.374;2023-03-01T10:26:29;102429.56;;;6.31;46.65
67015;BME280;1033;52.560;13.374;2023-03-01T10:29:15;102428.06;;;6.38;46.11
67015;BME280;1033;52.560;13.374;2023-03-01T10:32:04;102417.25;;;6.19;46.19
67015;BME280;1033;52.560;13.374;2023-03-01T10:34:43;102428.53;;;6.13;44.90
67015;BME280;1033;52.560;13.374;2023-03-01T10:37:57;102423.50;;;6.29;46.35
67015;BME280;1033;52.560;13.374;2023-03-01T10:40:57;102417.38;;;6.18;46.71
67015;BME280;1033;52.560;13.374;2023-03-01T10:43:51;102414.72;;;6.27;47.41
67015;BME280;1033;52.560;13.374;2023-03-01T10:46:30;102403.19;;;6.75;45.27
67015;BME280;1033;52.560;13.374;2023-03-01T10:49:22;102393.25;;;6.66;43.87
67015;BME280;1033;52.560;13.374;2023-03-01T10:52:17;102399.06;;;6.80;43.06
67015;BME280;1033;52.560;13.374;2023-03-01T10:54:56;102392.53;;;6.64;42.53
67015;BME280;1033;52.560;13.374;2023-03-01T10:57:39;102392.84;;;6.80;43.35
67015;BME280;1033;52.560;13.374;2023-03-01T11:00:23;102392.69;;;7.01;42.40
67015;BME280;1033;52.560;13.374;2023-03-01T11:03:11;102385.03;;;7.15;41.16
67015;BME280;1033;52.560;13.374;2023-03-01T11:05:59;102380.78;;;7.13;40.19
67015;BME280;1033;52.560;13.374;2023-03-01T11:08:42;102383.03;;;7.17;39.63
67015;BME280;1033;52.560;13.374;2023-03-01T11:11:24;102384.00;;;7.45;38.59
67015;BME280;1033;52.560;13.374;2023-03-01T11:14:16;102372.50;;;7.43;39.52
67015;BME280;1033;52.560;13.374;2023-03-01T11:17:02;102367.72;;;7.18;39.42
67015;BME280;1033;52.560;13.374;2023-03-01T11:19:35;102358.56;;;7.01;39.50
67015;BME280;1033;52.560;13.374;2023-03-01T11:22:14;102361.06;;;7.12;39.42
67015;BME280;1033;52.560;13.374;2023-03-01T11:24:52;102364.91;;;7.19;39.73
67015;BME280;1033;52.560;13.374;2023-03-01T11:27:40;102362.19;;;7.29;39.40
67015;BME280;1033;52.560;13.374;2023-03-01T11:30:22;102353.84;;;7.22;38.41
67015;BME280;1033;52.560;13.374;2023-03-01T11:33:16;102354.34;;;7.55;38.63
67015;BME280;1033;52.560;13.374;2023-03-01T11:35:53;102356.94;;;7.74;38.21
67015;BME280;1033;52.560;13.374;2023-03-01T11:38:30;102359.09;;;7.61;37.81
67015;BME280;1033;52.560;13.374;2023-03-01T11:41:06;102359.03;;;7.80;37.59
67015;BME280;1033;52.560;13.374;2023-03-01T11:43:47;102349.94;;;7.54;38.10
67015;BME280;1033;52.560;13.374;2023-03-01T11:46:49;102348.97;;;7.82;37.54
67015;BME280;1033;52.560;13.374;2023-03-01T11:49:46;102343.38;;;7.93;36.35
67015;BME280;1033;52.560;13.374;2023-03-01T11:52:34;102344.66;;;7.62;36.67
67015;BME280;1033;52.560;13.374;2023-03-01T11:58:25;102351.47;;;7.93;36.80
67015;BME280;1033;52.560;13.374;2023-03-01T12:01:21;102347.66;;;7.86;36.24
67015;BME280;1033;52.560;13.374;2023-03-01T12:04:26;102341.47;;;7.76;36.78
67015;BME280;1033;52.560;13.374;2023-03-01T12:07:17;102339.13;;;7.91;36.99
67015;BME280;1033;52.560;13.374;2023-03-01T12:10:17;102336.91;;;8.04;37.35
67015;BME280;1033;52.560;13.374;2023-03-01T12:13:06;102328.69;;;8.05;37.96
67015;BME280;1033;52.560;13.374;2023-03-01T12:16:02;102324.25;;;7.86;37.61
67015;BME280;1033;52.560;13.374;2023-03-01T12:21:56;102326.69;;;7.80;38.26
67015;BME280;1033;52.560;13.374;2023-03-01T12:24:58;102322.31;;;8.06;37.85
67015;BME280;1033;52.560;13.374;2023-03-01T12:28:04;102318.22;;;8.20;36.47
67015;BME280;1033;52.560;13.374;2023-03-01T12:30:49;102314.84;;;8.18;36.42
67015;BME280;1033;52.560;13.374;2023-03-01T12:33:34;102308.81;;;8.06;36.47
67015;BME280;1033;52.560;13.374;2023-03-01T12:39:22;102295.31;;;8.34;35.69
67015;BME280;1033;52.560;13.374;2023-03-01T12:42:04;102297.66;;;8.46;34.44
67015;BME280;1033;52.560;13.374;2023-03-01T12:45:02;102291.31;;;8.55;34.55
67015;BME280;1033;52.560;13.374;2023-03-01T12:47:59;102290.41;;;8.47;34.63
67015;BME280;1033;52.560;13.374;2023-03-01T12:50:39;102283.03;;;8.57;35.23
67015;BME280;1033;52.560;13.374;2023-03-01T12:53:22;102278.81;;;8.54;35.02
67015;BME280;1033;52.560;13.374;2023-03-01T12:56:12;102279.16;;;8.77;35.18
67015;BME280;1033;52.560;13.374;2023-03-01T12:58:55;102267.75;;;8.83;35.24
67015;BME280;1033;52.560;13.374;2023-03-01T13:01:36;102275.00;;;8.83;34.62
67015;BME280;1033;52.560;13.374;2023-03-01T13:04:36;102278.72;;;8.64;34.28
67015;BME280;1033;52.560;13.374;2023-03-01T13:07:36;102275.03;;;8.65;34.88
67015;BME280;1033;52.560;13.374;2023-03-01T13:10:21;102279.66;;;8.55;35.98
67015;BME280;1033;52.560;13.374;2023-03-01T13:13:13;102262.88;;;8.61;35.46
67015;BME280;1033;52.560;13.374;2023-03-01T13:15:46;102272.00;;;8.68;35.16
67015;BME280;1033;52.560;13.374;2023-03-01T13:18:34;102265.75;;;8.85;34.45
67015;BME280;1033;52.560;13.374;2023-03-01T13:21:09;102266.09;;;8.64;34.63
67015;BME280;1033;52.560;13.374;2023-03-01T13:23:42;102251.41;;;8.67;33.71
67015;BME280;1033;52.560;13.374;2023-03-01T13:26:18;102258.69;;;8.66;33.18
67015;BME280;1033;52.560;13.374;2023-03-01T13:28:54;102255.16;;;8.48;32.31
67015;BME280;1033;52.560;13.374;2023-03-01T13:31:58;102248.84;;;8.40;32.43
67015;BME280;1033;52.560;13.374;2023-03-01T13:34:52;102249.38;;;8.43;32.28
67015;BME280;1033;52.560;13.374;2023-03-01T13:37:35;102246.28;;;8.38;33.49
67015;BME280;1033;52.560;13.374;2023-03-01T13:43:30;102243.97;;;8.43;33.08
67015;BME280;1033;52.560;13.374;2023-03-01T13:46:09;102236.44;;;8.47;33.60
67015;BME280;1033;52.560;13.374;2023-03-01T13:48:47;102240.34;;;8.70;33.85
67015;BME280;1033;52.560;13.374;2023-03-01T13:51:24;102239.38;;;8.79;34.23
67015;BME280;1033;52.560;13.374;2023-03-01T13:54:09;102238.13;;;8.48;34.63
67015;BME280;1033;52.560;13.374;2023-03-01T13:56:44;102226.56;;;8.55;35.28
67015;BME280;1033;52.560;13.374;2023-03-01T13:59:18;102227.09;;;8.59;34.45
67015;BME280;1033;52.560;13.374;2023-03-01T14:01:57;102219.22;;;8.48;34.50
67015;BME280;1033;52.560;13.374;2023-03-01T14:04:35;102217.88;;;8.69;35.07
67015;BME280;1033;52.560;13.374;2023-03-01T14:07:16;102218.69;;;8.44;36.31
67015;BME280;1033;52.560;13.374;2023-03-01T14:09:54;102213.59;;;8.59;36.17
67015;BME280;1033;52.560;13.374;2023-03-01T14:12:39;102205.16;;;8.62;36.50
67015;BME280;1033;52.560;13.374;2023-03-01T14:15:22;102207.56;;;8.65;36.59
67015;BME280;1033;52.560;13.374;2023-03-01T14:18:05;102205.34;;;8.60;36.91